Time;durP1;ratioP1;P1;durP2;ratioP2;P2;SDS_P1;SDS_P2;PMS_P1;PMS_P2;Temp;Humidity;BMP_temperature;BMP_pressure;BME280_temperature;BME280_humidity;BME280_pressure;Samples;Min_cycle;Max_cycle;Signal;HPM_P1;HPM_P2
2023/03/03 00:00:57;;;;;;;119.80;55.50;;;;;;;-0.22;89.66;101090.55;104371;1274;99810;-78
2023/03/03 00:03:41;;;;;;;128.60;59.30;;;;;;;-0.26;89.70;101092.06;104460;1273;105166;-79
2023/03/03 00:06:26;;;;;;;122.70;57.30;;;;;;;-0.26;89.83;101097.56;104471;1278;99364;-78
2023/03/03 00:09:11;;;;;;;120.90;55.70;;;;;;;-0.26;89.68;101095.65;104360;1279;99335;-78
2023/03/03 00:11:57;;;;;;;116.00;55.20;;;;;;;-0.29;89.69;101097.34;104385;1277;99269;-77
2023/03/03 00:14:42;;;;;;;113.10;56.70;;;;;;;-0.30;89.60;101089.00;104143;1279;99430;-77
2023/03/03 00:17:30;;;;;;;124.00;57.00;;;;;;;-0.30;89.56;101085.85;104201;1279;103932;-77
2023/03/03 00:20:32;;;;;;;122.10;55.20;;;;;;;-0.30;89.52;101085.04;104165;1283;99362;-78
2023/03/03 00:23:23;;;;;;;114.70;52.80;;;;;;;-0.32;89.68;101082.15;104393;1274;99447;-77
2023/03/03 00:26:22;;;;;;;105.60;49.00;;;;;;;-0.30;89.84;101082.56;104255;1274;99335;-77
2023/03/03 00:29:32;;;;;;;108.70;48.00;;;;;;;-0.31;89.84;101077.90;104431;1277;99876;-80
2023/03/03 00:32:22;;;;;;;101.40;47.80;;;;;;;-0.35;90.01;101074.27;104275;1277;103930;-78
2023/03/03 00:35:38;;;;;;;105.20;49.90;;;;;;;-0.35;90.12;101069.59;104157;1277;100210;-78
2023/03/03 00:38:23;;;;;;;98.80;46.80;;;;;;;-0.33;90.30;101062.27;104322;1276;101078;-77
2023/03/03 00:41:22;;;;;;;95.70;45.80;;;;;;;-0.31;90.29;101064.18;104376;1275;99463;-78
2023/03/03 00:44:40;;;;;;;99.80;45.50;;;;;;;-0.30;90.14;101057.98;104052;1277;99908;-78
2023/03/03 00:47:37;;;;;;;101.90;45.10;;;;;;;-0.29;90.09;101048.80;104049;1280;103550;-78
2023/03/03 00:50:28;;;;;;;88.60;43.70;;;;;;;-0.29;90.05;101043.89;104020;1277;99562;-78
2023/03/03 00:53:17;;;;;;;88.10;43.90;;;;;;;-0.31;90.16;101035.92;104875;1276;99326;-78
2023/03/03 00:56:02;;;;;;;100.70;46.10;;;;;;;-0.30;90.21;101040.11;104368;1274;99501;-79
2023/03/03 00:58:48;;;;;;;99.20;46.50;;;;;;;-0.31;89.99;101040.17;104411;1277;101066;-77
2023/03/03 01:01:35;;;;;;;96.30;44.60;;;;;;;-0.34;89.82;101036.48;104082;1279;103511;-77
2023/03/03 01:04:19;;;;;;;97.10;46.70;;;;;;;-0.36;89.64;101030.15;103987;1274;100485;-77
2023/03/03 01:07:04;;;;;;;91.90;45.30;;;;;;;-0.37;89.70;101024.25;103973;1280;99871;-78
2023/03/03 01:09:49;;;;;;;96.20;45.60;;;;;;;-0.38;89.77;101020.33;104414;1280;100106;-77
2023/03/03 01:12:35;;;;;;;93.20;43.80;;;;;;;-0.38;89.98;101018.52;104289;1290;99367;-76
2023/03/03 01:15:19;;;;;;;91.30;44.40;;;;;;;-0.37;90.08;101014.97;104416;1277;104109;-77
2023/03/03 01:18:06;;;;;;;88.60;43.10;;;;;;;-0.37;90.10;101010.24;104168;1277;100087;-77
2023/03/03 01:20:51;;;;;;;88.80;41.90;;;;;;;-0.41;90.09;101002.59;103967;1281;99345;-77
2023/03/03 01:23:36;;;;;;;94.20;42.60;;;;;;;-0.45;90.17;100993.82;104368;1278;99876;-78
2023/03/03 01:26:20;;;;;;;93.50;42.40;;;;;;;-0.48;90.31;100988.25;103995;1279;99834;-80
2023/03/03 01:29:05;;;;;;;84.90;41.80;;;;;;;-0.49;90.48;100988.33;103975;1277;102804;-78
2023/03/03 01:31:50;;;;;;;82.90;43.30;;;;;;;-0.48;90.59;100984.36;103934;1280;100373;-78
2023/03/03 01:34:35;;;;;;;82.40;39.40;;;;;;;-0.46;90.61;100976.87;104455;1277;99453;-77
2023/03/03 01:37:20;;;;;;;86.40;41.10;;;;;;;-0.46;90.54;100973.29;104330;1277;99365;-77
2023/03/03 01:40:07;;;;;;;82.50;39.70;;;;;;;-0.45;90.63;100976.79;104421;1274;100342;-77
2023/03/03 01:42:52;;;;;;;98.20;46.60;;;;;;;-0.47;90.54;100976.20;104062;1280;102676;-77
2023/03/03 01:46:04;;;;;;;95.10;43.90;;;;;;;-0.49;90.58;100969.30;103954;1290;99830;-78
2023/03/03 01:48:53;;;;;;;100.80;44.50;;;;;;;-0.50;90.75;100967.65;104278;1278;99344;-77
2023/03/03 01:51:49;;;;;;;88.20;43.50;;;;;;;-0.49;90.79;100969.01;104036;1280;99447;-77
2023/03/03 01:54:40;;;;;;;88.30;43.20;;;;;;;-0.50;90.72;100970.09;103872;1279;99342;-78
2023/03/03 01:57:33;;;;;;;86.20;44.30;;;;;;;-0.51;90.77;100968.62;104074;1279;102720;-78
2023/03/03 02:00:18;;;;;;;91.20;42.80;;;;;;;-0.54;90.73;100972.13;103960;1276;99361;-79
2023/03/03 02:03:04;;;;;;;92.70;41.80;;;;;;;-0.55;90.91;100967.69;103946;1283;99350;-76
2023/03/03 02:05:53;;;;;;;92.20;42.80;;;;;;;-0.57;90.98;100965.84;104172;1279;99525;-77
2023/03/03 02:08:55;;;;;;;98.40;44.80;;;;;;;-0.58;90.94;100967.52;104508;1279;99471;-78
2023/03/03 02:11:43;;;;;;;92.50;42.20;;;;;;;-0.61;91.11;100967.88;104364;1278;102712;-76
2023/03/03 02:14:28;;;;;;;98.50;43.70;;;;;;;-0.62;91.18;100970.48;104096;1282;100369;-79
2023/03/03 02:17:12;;;;;;;86.20;43.00;;;;;;;-0.64;91.20;100968.84;103951;1279;99456;-79
2023/03/03 02:20:25;;;;;;;92.10;44.60;;;;;;;-0.64;91.16;100973.05;104203;1274;99383;-78
2023/03/03 02:23:28;;;;;;;91.80;40.70;;;;;;;-0.66;91.21;100972.62;103995;1280;99355;-78
2023/03/03 02:26:21;;;;;;;82.40;41.00;;;;;;;-0.69;91.32;100969.52;104161;1277;102744;-78
2023/03/03 02:29:08;;;;;;;84.80;41.50;;;;;;;-0.71;91.53;100964.96;104115;1277;99873;-77
2023/03/03 02:31:54;;;;;;;87.80;41.70;;;;;;;-0.72;91.78;100966.08;103956;1279;99423;-78
2023/03/03 02:34:48;;;;;;;85.10;40.20;;;;;;;-0.72;91.83;100969.38;104343;1279;99347;-76
2023/03/03 02:37:34;;;;;;;86.90;42.60;;;;;;;-0.72;91.89;100971.65;104297;1277;99284;-78
2023/03/03 02:40:23;;;;;;;89.80;42.40;;;;;;;-0.70;91.93;100974.16;104090;1276;102702;-76
2023/03/03 02:43:10;;;;;;;94.90;41.90;;;;;;;-0.69;91.98;100972.16;104341;1277;100159;-76
2023/03/03 02:45:55;;;;;;;91.90;42.30;;;;;;;-0.70;91.69;100976.42;103930;1274;99339;-77
2023/03/03 02:48:42;;;;;;;84.00;40.80;;;;;;;-0.72;91.63;100969.73;104109;1279;99339;-77
2023/03/03 02:51:27;;;;;;;91.40;42.40;;;;;;;-0.76;91.70;100971.06;104463;1277;100620;-79
2023/03/03 02:54:14;;;;;;;86.10;40.20;;;;;;;-0.76;91.83;100969.66;103938;1274;103076;-77
2023/03/03 02:57:00;;;;;;;94.20;42.20;;;;;;;-0.76;91.85;100965.09;104061;1280;100374;-78
2023/03/03 02:59:45;;;;;;;85.00;39.00;;;;;;;-0.75;92.04;100966.66;104402;1274;99482;-79
2023/03/03 03:02:31;;;;;;;87.30;40.20;;;;;;;-0.78;92.13;100961.90;104136;1280;99445;-76
2023/03/03 03:05:16;;;;;;;89.80;39.60;;;;;;;-0.79;92.15;100960.40;104188;1279;99319;-78
2023/03/03 03:08:01;;;;;;;91.00;42.00;;;;;;;-0.80;92.11;100962.90;104143;1280;102697;-79
2023/03/03 03:10:49;;;;;;;88.40;41.30;;;;;;;-0.80;92.15;100965.36;104349;1275;100115;-77
2023/03/03 03:13:34;;;;;;;93.00;43.80;;;;;;;-0.79;92.18;100963.91;104320;1275;99344;-78
2023/03/03 03:16:20;;;;;;;89.80;40.40;;;;;;;-0.79;92.15;100966.84;104389;1279;100785;-76
2023/03/03 03:19:05;;;;;;;88.50;41.10;;;;;;;-0.77;92.09;100964.85;104113;1279;99336;-77
2023/03/03 03:21:51;;;;;;;80.90;38.90;;;;;;;-0.78;92.07;100957.21;104115;1276;102954;-78
2023/03/03 03:24:36;;;;;;;92.30;41.10;;;;;;;-0.83;92.18;100959.44;104006;1279;99333;-77
2023/03/03 03:27:23;;;;;;;94.60;41.30;;;;;;;-0.86;92.23;100955.95;104345;1274;99268;-77
2023/03/03 03:30:09;;;;;;;89.40;38.30;;;;;;;-0.89;92.05;100952.13;104007;1282;99323;-79
2023/03/03 03:32:54;;;;;;;83.40;42.20;;;;;;;-0.93;92.11;100948.73;104333;1279;101028;-78
2023/03/03 03:35:44;;;;;;;89.60;41.90;;;;;;;-0.97;92.19;100950.59;104362;1277;103997;-78
2023/03/03 03:38:30;;;;;;;93.90;41.10;;;;;;;-1.00;92.29;100949.75;103941;1280;99345;-76
2023/03/03 03:41:16;;;;;;;88.90;41.30;;;;;;;-1.03;92.35;100945.74;104160;1274;99474;-78
2023/03/03 03:44:01;;;;;;;93.00;43.00;;;;;;;-1.06;92.36;100944.02;104330;1279;99351;-78
2023/03/03 03:46:46;;;;;;;88.60;42.50;;;;;;;-1.08;92.43;100942.08;104266;1274;100017;-77
2023/03/03 03:49:30;;;;;;;85.20;38.30;;;;;;;-1.07;92.51;100941.67;104291;1280;113645;-76
2023/03/03 03:52:15;;;;;;;79.70;39.90;;;;;;;-1.10;92.41;100929.59;104388;1279;99278;-76
2023/03/03 03:55:00;;;;;;;94.90;44.80;;;;;;;-1.12;92.46;100922.91;104059;1280;99543;-78
2023/03/03 03:57:46;;;;;;;92.00;44.00;;;;;;;-1.10;92.55;100929.07;104243;1279;100464;-78
2023/03/03 04:00:31;;;;;;;94.40;44.30;;;;;;;-1.11;92.43;100936.52;104310;1274;99895;-77
2023/03/03 04:03:17;;;;;;;95.60;45.60;;;;;;;-1.13;92.43;100936.44;104197;1279;103617;-77
2023/03/03 04:06:02;;;;;;;97.20;45.50;;;;;;;-1.14;92.54;100932.67;103959;1275;100172;-77
2023/03/03 04:08:48;;;;;;;98.10;42.90;;;;;;;-1.12;92.63;100927.48;104322;1274;99335;-78
2023/03/03 04:11:33;;;;;;;94.50;45.00;;;;;;;-1.11;92.51;100930.77;104219;1279;100502;-77
2023/03/03 04:14:18;;;;;;;93.20;45.60;;;;;;;-1.11;92.43;100932.27;104347;1280;99371;-78
2023/03/03 04:17:03;;;;;;;101.70;45.60;;;;;;;-1.08;92.44;100930.52;104381;1280;102790;-77
2023/03/03 04:19:48;;;;;;;91.90;44.30;;;;;;;-1.06;92.47;100927.20;104117;1280;100962;-77
2023/03/03 04:22:34;;;;;;;94.00;41.60;;;;;;;-1.05;92.35;100919.79;104272;1278;99255;-77
2023/03/03 04:25:20;;;;;;;93.80;43.60;;;;;;;-1.05;92.29;100921.91;103997;1274;99387;-77
2023/03/03 04:28:05;;;;;;;89.60;39.50;;;;;;;-1.06;92.24;100913.88;104377;1279;99329;-78
2023/03/03 04:30:50;;;;;;;100.20;45.40;;;;;;;-1.06;92.22;100918.48;104241;1279;102784;-77
2023/03/03 04:33:35;;;;;;;92.70;43.30;;;;;;;-1.09;92.11;100918.35;104349;1287;99457;-77
2023/03/03 04:36:23;;;;;;;103.70;44.10;;;;;;;-1.13;92.10;100912.45;104304;1280;100100;-77
2023/03/03 04:39:08;;;;;;;98.20;47.40;;;;;;;-1.16;92.12;100914.08;104256;1280;99447;-77
2023/03/03 04:41:52;;;;;;;99.50;47.30;;;;;;;-1.19;92.10;100911.83;103978;1274;99935;-77
2023/03/03 04:44:38;;;;;;;108.50;48.50;;;;;;;-1.18;92.25;100912.29;103943;1274;102682;-77
2023/03/03 04:47:24;;;;;;;102.20;49.80;;;;;;;-1.16;92.38;100912.85;104261;1279;99309;-77
2023/03/03 04:50:10;;;;;;;105.70;49.50;;;;;;;-1.17;92.29;100912.03;105188;1279;99288;-76
2023/03/03 04:52:55;;;;;;;106.10;46.30;;;;;;;-1.19;92.30;100908.33;104333;1279;99525;-76
2023/03/03 04:55:40;;;;;;;116.20;56.50;;;;;;;-1.22;92.52;100901.66;104377;1277;100386;-78
2023/03/03 04:58:26;;;;;;;114.00;53.90;;;;;;;-1.22;92.83;100902.40;104377;1280;102778;-77
2023/03/03 05:01:12;;;;;;;116.70;49.90;;;;;;;-1.23;93.07;100901.63;104429;1274;99426;-78
2023/03/03 05:03:58;;;;;;;120.50;51.20;;;;;;;-1.25;93.30;100901.03;104322;1280;99587;-77
2023/03/03 05:06:42;;;;;;;121.20;51.90;;;;;;;-1.29;93.48;100904.97;104171;1276;99455;-79
2023/03/03 05:09:27;;;;;;;123.20;49.40;;;;;;;-1.31;93.76;100906.20;104214;1279;99847;-77
2023/03/03 05:12:11;;;;;;;117.80;49.30;;;;;;;-1.33;94.04;100905.42;104291;1279;102785;-76
2023/03/03 05:14:56;;;;;;;130.40;54.20;;;;;;;-1.36;94.40;100901.27;104208;1279;99664;-78
2023/03/03 05:17:40;;;;;;;127.70;53.10;;;;;;;-1.35;94.66;100909.08;104378;1279;99346;-77
2023/03/03 05:20:26;;;;;;;103.40;42.10;;;;;;;-1.34;94.85;100905.86;104175;1279;99409;-78
2023/03/03 05:23:11;;;;;;;118.20;45.70;;;;;;;-1.36;94.99;100903.39;104143;1276;99794;-77
2023/03/03 05:25:55;;;;;;;119.10;46.40;;;;;;;-1.36;95.20;100906.70;103990;1277;104002;-77
2023/03/03 05:28:40;;;;;;;96.50;41.90;;;;;;;-1.33;95.41;100901.80;104342;1278;100069;-79
2023/03/03 05:31:26;;;;;;;100.50;43.30;;;;;;;-1.33;95.49;100906.51;104351;1280;99347;-77
2023/03/03 05:34:10;;;;;;;82.90;36.70;;;;;;;-1.34;95.76;100912.33;104410;1280;100596;-78
2023/03/03 05:36:55;;;;;;;80.80;33.20;;;;;;;-1.35;96.01;100912.41;104358;1286;99755;-77
2023/03/03 05:39:40;;;;;;;83.70;36.80;;;;;;;-1.36;96.09;100906.17;104342;1283;103380;-77
2023/03/03 05:42:24;;;;;;;99.70;40.30;;;;;;;-1.37;96.28;100905.55;104427;1279;100481;-78
2023/03/03 05:45:10;;;;;;;90.20;39.60;;;;;;;-1.35;96.50;100906.67;104159;1275;100025;-76
2023/03/03 05:47:55;;;;;;;97.20;41.30;;;;;;;-1.35;96.71;100903.50;104297;1279;99358;-76
2023/03/03 05:50:40;;;;;;;92.00;40.40;;;;;;;-1.31;96.96;100908.63;104328;1277;99896;-77
2023/03/03 05:53:26;;;;;;;101.60;41.70;;;;;;;-1.27;97.17;100911.30;104337;1277;103362;-76
2023/03/03 05:56:10;;;;;;;81.70;32.50;;;;;;;-1.24;97.19;100911.50;104184;1280;99345;-77
2023/03/03 05:58:55;;;;;;;78.40;34.40;;;;;;;-1.25;97.18;100907.53;104285;1277;99432;-77
2023/03/03 06:01:40;;;;;;;82.40;35.60;;;;;;;-1.27;97.30;100903.12;104301;1280;99364;-77
2023/03/03 06:04:25;;;;;;;78.60;36.00;;;;;;;-1.25;97.40;100899.13;104278;1278;99803;-77
2023/03/03 06:07:09;;;;;;;87.40;34.50;;;;;;;-1.22;97.61;100904.19;104334;1280;102804;-77
2023/03/03 06:09:54;;;;;;;93.80;40.60;;;;;;;-1.19;97.63;100906.61;104375;1279;100360;-77
2023/03/03 06:12:40;;;;;;;81.80;35.10;;;;;;;-1.17;97.87;100912.56;103985;1290;99320;-78
2023/03/03 06:15:25;;;;;;;82.90;37.80;;;;;;;-1.16;98.11;100912.88;104235;1280;100156;-77
2023/03/03 06:18:11;;;;;;;85.30;36.90;;;;;;;-1.15;98.28;100909.44;103968;1277;99962;-76
2023/03/03 06:20:55;;;;;;;80.10;35.80;;;;;;;-1.13;98.44;100901.60;104334;1287;102803;-78
2023/03/03 06:23:40;;;;;;;74.90;34.90;;;;;;;-1.12;98.47;100898.34;104319;1278;100505;-77
2023/03/03 06:26:25;;;;;;;85.90;35.30;;;;;;;-1.11;98.57;100904.77;104274;1280;99326;-77
2023/03/03 06:29:10;;;;;;;79.70;36.10;;;;;;;-1.09;98.67;100903.27;104303;1279;99810;-77
2023/03/03 06:31:55;;;;;;;97.50;37.40;;;;;;;-1.08;98.77;100903.69;104395;1280;99338;-76
2023/03/03 06:34:40;;;;;;;74.30;32.10;;;;;;;-1.06;98.90;100906.55;104373;1280;102786;-77
2023/03/03 06:37:26;;;;;;;86.80;37.10;;;;;;;-1.05;98.96;100906.25;104302;1280;99352;-77
2023/03/03 06:40:11;;;;;;;91.70;38.90;;;;;;;-1.04;98.98;100906.77;104220;1280;99482;-77
2023/03/03 06:42:56;;;;;;;77.10;33.90;;;;;;;-1.03;99.07;100905.79;104316;1278;99342;-77
2023/03/03 06:45:42;;;;;;;94.30;37.50;;;;;;;-1.02;99.07;100909.59;104404;1280;99846;-78
2023/03/03 06:48:27;;;;;;;90.20;38.00;;;;;;;-1.00;99.28;100909.30;104108;1279;103987;-77
2023/03/03 06:51:33;;;;;;;82.80;35.30;;;;;;;-0.98;99.38;100906.84;104377;1275;100579;-77
2023/03/03 06:54:22;;;;;;;89.50;36.70;;;;;;;-0.95;99.55;100908.77;104205;1277;99357;-79
2023/03/03 06:57:16;;;;;;;85.70;38.90;;;;;;;-0.92;99.66;100904.14;104336;1279;99348;-77
2023/03/03 07:00:19;;;;;;;91.10;35.90;;;;;;;-0.88;99.77;100903.50;104536;1278;99802;-77
2023/03/03 07:03:15;;;;;;;89.20;37.60;;;;;;;-0.83;99.93;100896.66;104240;1288;102798;-77
2023/03/03 07:06:05;;;;;;;80.40;34.30;;;;;;;-0.80;99.90;100882.10;104088;1277;99231;-78
2023/03/03 07:08:51;;;;;;;84.10;36.30;;;;;;;-0.77;99.93;100871.19;104252;1287;99972;-77
2023/03/03 07:11:39;;;;;;;82.60;35.40;;;;;;;-0.78;99.85;100868.92;104450;1279;99360;-76
2023/03/03 07:14:24;;;;;;;87.70;36.30;;;;;;;-0.78;99.94;100870.20;104501;1279;99397;-77
2023/03/03 07:17:16;;;;;;;77.20;34.90;;;;;;;-0.75;99.96;100877.73;104369;1279;102780;-77
2023/03/03 07:20:01;;;;;;;86.40;36.30;;;;;;;-0.72;100.00;100885.42;104355;1276;99883;-77
2023/03/03 07:22:46;;;;;;;89.30;35.50;;;;;;;-0.71;100.00;100887.91;104400;1276;99399;-78
2023/03/03 07:25:36;;;;;;;81.20;37.30;;;;;;;-0.70;100.00;100885.05;104252;1278;99377;-77
2023/03/03 07:28:30;;;;;;;89.90;39.40;;;;;;;-0.67;100.00;100892.02;104408;1278;99205;-77
2023/03/03 07:31:26;;;;;;;91.10;37.40;;;;;;;-0.62;100.00;100896.63;104466;1290;102800;-79
2023/03/03 07:34:22;;;;;;;98.10;39.50;;;;;;;-0.56;100.00;100897.61;104419;1281;99427;-78
2023/03/03 07:37:30;;;;;;;102.00;39.90;;;;;;;-0.52;100.00;100895.73;104202;1287;99330;-77
2023/03/03 07:40:35;;;;;;;101.50;39.40;;;;;;;-0.48;100.00;100900.88;104360;1279;99361;-77
2023/03/03 07:43:38;;;;;;;97.90;37.80;;;;;;;-0.44;100.00;100909.87;104362;1280;99248;-77
2023/03/03 07:46:42;;;;;;;93.60;41.10;;;;;;;-0.47;100.00;100914.45;104387;1287;102796;-77
2023/03/03 07:49:36;;;;;;;113.20;44.60;;;;;;;-0.49;100.00;100907.92;104280;1280;100449;-76
2023/03/03 07:52:26;;;;;;;110.10;48.70;;;;;;;-0.48;100.00;100908.08;104254;1276;99365;-77
2023/03/03 07:55:35;;;;;;;117.30;50.60;;;;;;;-0.50;100.00;100903.61;103970;1274;99467;-79
2023/03/03 07:58:23;;;;;;;116.60;53.20;;;;;;;-0.49;100.00;100902.99;104301;1279;99178;-77
2023/03/03 08:01:27;;;;;;;93.70;43.40;;;;;;;-0.45;100.00;100901.51;104372;1280;104350;-77
2023/03/03 08:04:21;;;;;;;93.10;37.90;;;;;;;-0.43;100.00;100907.89;104531;1279;100493;-78
2023/03/03 08:07:15;;;;;;;103.60;46.20;;;;;;;-0.41;100.00;100911.20;105218;1279;99345;-88
2023/03/03 08:10:01;;;;;;;93.70;40.20;;;;;;;-0.37;100.00;100906.04;104937;1280;99501;-85
2023/03/03 08:12:46;;;;;;;98.10;41.70;;;;;;;-0.35;100.00;100913.09;105259;1277;99163;-89
2023/03/03 08:15:37;;;;;;;89.50;39.30;;;;;;;-0.34;100.00;100920.32;104658;1276;103300;-82
2023/03/03 08:18:42;;;;;;;85.00;37.90;;;;;;;-0.32;100.00;100917.38;104826;1279;100988;-83
2023/03/03 08:21:30;;;;;;;88.80;37.30;;;;;;;-0.30;100.00;100914.08;104671;1285;100225;-86
2023/03/03 08:24:15;;;;;;;81.20;36.00;;;;;;;-0.26;100.00;100920.67;104693;1280;99388;-83
2023/03/03 08:27:01;;;;;;;83.70;35.30;;;;;;;-0.23;100.00;100921.15;105219;1280;99466;-86
2023/03/03 08:29:48;;;;;;;81.40;36.20;;;;;;;-0.22;100.00;100926.64;104694;1277;103879;-84
2023/03/03 08:32:33;;;;;;;90.30;38.50;;;;;;;-0.19;100.00;100929.58;104887;1276;99562;-85
2023/03/03 08:35:18;;;;;;;90.00;39.20;;;;;;;-0.15;100.00;100934.08;105143;1286;99346;-87
2023/03/03 08:38:04;;;;;;;81.20;35.10;;;;;;;-0.13;100.00;100937.23;104889;1277;99491;-85
2023/03/03 08:40:50;;;;;;;82.10;33.10;;;;;;;-0.11;100.00;100953.44;104955;1279;98476;-85
2023/03/03 08:43:35;;;;;;;76.70;33.40;;;;;;;-0.08;100.00;100958.66;104800;1277;104022;-80
2023/03/03 08:46:20;;;;;;;78.10;33.90;;;;;;;-0.07;100.00;100966.28;104951;1274;100483;-87
2023/03/03 08:49:06;;;;;;;82.20;32.50;;;;;;;-0.07;100.00;100967.66;104633;1282;100236;-85
2023/03/03 08:51:51;;;;;;;67.10;28.20;;;;;;;-0.07;100.00;100968.59;104869;1282;99339;-85
2023/03/03 08:54:36;;;;;;;71.40;31.30;;;;;;;-0.11;100.00;100966.92;104885;1282;101099;-86
2023/03/03 08:57:22;;;;;;;74.60;30.90;;;;;;;-0.11;100.00;100970.98;105114;1276;103772;-82
2023/03/03 09:00:09;;;;;;;74.10;29.00;;;;;;;-0.10;100.00;100973.17;104700;1277;100949;-75
2023/03/03 09:02:54;;;;;;;71.70;29.50;;;;;;;-0.08;100.00;100971.27;104944;1280;99390;-80
2023/03/03 09:05:40;;;;;;;72.10;29.80;;;;;;;-0.06;100.00;100965.52;104977;1276;99357;-85
2023/03/03 09:08:25;;;;;;;73.00;29.20;;;;;;;-0.03;100.00;100963.33;104513;1281;100004;-76
2023/03/03 09:11:15;;;;;;;66.20;28.80;;;;;;;-0.01;100.00;100963.59;104369;1287;102742;-79
2023/03/03 09:14:13;;;;;;;59.10;28.10;;;;;;;-0.01;100.00;100961.24;104161;1276;100101;-78
2023/03/03 09:17:01;;;;;;;53.00;24.20;;;;;;;-0.03;100.00;100960.17;105031;1279;99364;-86
2023/03/03 09:19:47;;;;;;;57.80;23.00;;;;;;;-0.05;100.00;100951.59;104890;1276;99403;-84
2023/03/03 09:22:39;;;;;;;57.20;23.80;;;;;;;-0.09;100.00;100949.94;104636;1276;99812;-83
2023/03/03 09:25:42;;;;;;;54.70;25.50;;;;;;;-0.09;100.00;100940.77;105301;1287;103825;-90
2023/03/03 09:28:30;;;;;;;52.30;24.30;;;;;;;-0.04;100.00;100934.08;105014;1275;99097;-87
2023/03/03 09:31:25;;;;;;;46.10;21.30;;;;;;;0.01;100.00;100934.46;104717;1279;99661;-81
2023/03/03 09:34:23;;;;;;;55.80;23.40;;;;;;;0.03;100.00;100936.24;104719;1280;99271;-85
2023/03/03 09:37:22;;;;;;;44.60;22.30;;;;;;;0.03;100.00;100935.05;105325;1276;98357;-87
2023/03/03 09:40:29;;;;;;;49.80;23.40;;;;;;;0.00;99.91;100941.55;105235;1280;102732;-86
2023/03/03 09:43:29;;;;;;;42.50;22.10;;;;;;;0.01;99.98;100944.16;105300;1278;100332;-82
2023/03/03 09:47:02;;;;;;;50.90;23.90;;;;;;;-0.01;99.98;100940.38;104814;1278;99446;-75
2023/03/03 09:49:59;;;;;;;52.80;23.10;;;;;;;0.04;100.00;100934.29;104021;1279;99829;-76
2023/03/03 09:52:47;;;;;;;53.00;23.80;;;;;;;0.07;100.00;100926.16;104271;1276;99412;-76
2023/03/03 09:55:38;;;;;;;45.60;22.20;;;;;;;0.20;100.00;100919.02;104335;1280;103354;-75
2023/03/03 09:58:31;;;;;;;43.70;21.00;;;;;;;0.30;100.00;100915.96;104166;1277;101011;-75
2023/03/03 10:01:32;;;;;;;51.50;25.80;;;;;;;0.33;100.00;100911.92;103942;1280;99307;-75
2023/03/03 10:04:56;;;;;;;57.60;27.90;;;;;;;0.34;99.91;100913.08;104020;1276;99471;-76
2023/03/03 10:07:49;;;;;;;53.50;24.30;;;;;;;0.34;99.83;100912.34;104633;1283;101080;-83
2023/03/03 10:10:49;;;;;;;52.80;25.30;;;;;;;0.36;99.80;100910.23;104771;1279;103920;-82
2023/03/03 10:13:56;;;;;;;46.20;23.00;;;;;;;0.34;99.39;100915.35;105044;1276;100335;-81
2023/03/03 10:16:41;;;;;;;55.80;27.30;;;;;;;0.34;99.46;100913.88;104773;1280;99242;-78
2023/03/03 10:19:35;;;;;;;57.60;27.00;;;;;;;0.38;99.63;100912.07;104526;1279;100091;-83
2023/03/03 10:22:33;;;;;;;50.30;23.80;;;;;;;0.40;99.46;100911.20;104881;1279;99206;-75
2023/03/03 10:25:37;;;;;;;47.30;21.90;;;;;;;0.40;99.23;100906.63;104540;1279;102865;-86
2023/03/03 10:28:52;;;;;;;45.20;20.80;;;;;;;0.38;99.10;100906.94;104906;1277;101370;-84
2023/03/03 10:31:55;;;;;;;46.30;21.00;;;;;;;0.37;99.06;100903.86;105200;1276;107777;-85
2023/03/03 10:35:12;;;;;;;74.90;31.10;;;;;;;0.36;98.96;100902.84;104669;1275;99380;-84
2023/03/03 10:38:09;;;;;;;65.30;27.20;;;;;;;0.36;98.98;100906.25;104782;1280;99691;-83
2023/03/03 10:41:03;;;;;;;57.70;25.10;;;;;;;0.36;99.07;100910.27;104993;1273;103914;-81
2023/03/03 10:44:19;;;;;;;55.60;24.40;;;;;;;0.39;99.35;100909.54;105252;1277;99468;-84
2023/03/03 10:47:25;;;;;;;41.80;20.40;;;;;;;0.40;99.04;100914.55;104908;1273;99373;-78
2023/03/03 10:50:25;;;;;;;41.00;19.30;;;;;;;0.37;98.85;100917.61;104894;1279;99327;-84
2023/03/03 10:53:22;;;;;;;38.70;18.30;;;;;;;0.33;98.72;100922.93;104899;1280;99882;-79
2023/03/03 10:56:26;;;;;;;36.80;19.10;;;;;;;0.29;98.68;100926.73;105195;1277;102689;-83
2023/03/03 11:00:04;;;;;;;41.50;18.90;;;;;;;0.30;98.84;100921.46;105227;1276;99389;-82
2023/03/03 11:03:25;;;;;;;37.40;19.10;;;;;;;0.31;98.85;100924.64;105137;1276;99300;-83
2023/03/03 11:06:13;;;;;;;41.00;18.30;;;;;;;0.28;98.65;100928.41;104880;1276;99278;-80
2023/03/03 11:09:03;;;;;;;41.10;20.30;;;;;;;0.28;98.75;100926.11;105293;1276;99156;-82
2023/03/03 11:11:57;;;;;;;46.30;23.40;;;;;;;0.31;98.99;100926.45;105220;1274;102777;-85
2023/03/03 11:15:17;;;;;;;48.10;22.10;;;;;;;0.31;98.97;100927.80;104546;1274;100007;-86
2023/03/03 11:18:33;;;;;;;39.60;18.70;;;;;;;0.26;98.83;100935.42;104402;1279;99260;-89
2023/03/03 11:21:27;;;;;;;52.10;24.00;;;;;;;0.23;98.82;100931.10;104816;1274;99237;-85
2023/03/03 11:24:12;;;;;;;45.90;22.40;;;;;;;0.22;98.74;100926.11;105194;1273;98397;-86
2023/03/03 11:27:23;;;;;;;39.30;18.50;;;;;;;0.20;98.79;100928.48;104820;1278;105085;-77
2023/03/03 11:30:29;;;;;;;51.50;23.20;;;;;;;0.18;98.83;100927.44;104181;1279;99289;-83
2023/03/03 11:33:22;;;;;;;47.60;20.30;;;;;;;0.20;99.19;100924.64;104631;1280;100094;-77
2023/03/03 11:36:19;;;;;;;52.70;25.00;;;;;;;0.21;99.16;100918.93;104578;1274;99367;-88
2023/03/03 11:39:13;;;;;;;63.20;28.90;;;;;;;0.22;99.16;100918.86;103932;1280;99952;-77
2023/03/03 11:42:26;;;;;;;59.00;27.10;;;;;;;0.22;99.10;100915.36;104129;1274;104010;-77
2023/03/03 11:45:18;;;;;;;68.60;28.50;;;;;;;0.22;99.17;100911.34;104412;1276;99246;-77
2023/03/03 11:48:13;;;;;;;56.70;23.40;;;;;;;0.21;99.08;100904.16;103954;1277;100514;-77
2023/03/03 11:51:18;;;;;;;58.90;26.70;;;;;;;0.22;99.17;100900.80;104032;1280;99377;-83
2023/03/03 11:54:23;;;;;;;51.10;22.60;;;;;;;0.21;99.04;100898.05;104064;1280;99908;-78
2023/03/03 11:57:21;;;;;;;54.00;24.20;;;;;;;0.20;99.02;100896.17;104192;1274;102766;-77
2023/03/03 12:00:28;;;;;;;55.30;24.60;;;;;;;0.22;99.27;100894.10;104144;1280;100564;-77
2023/03/03 12:03:23;;;;;;;59.30;23.80;;;;;;;0.22;99.26;100895.30;104242;1274;99479;-78
2023/03/03 12:06:36;;;;;;;54.20;24.70;;;;;;;0.22;99.16;100895.67;104127;1279;99355;-76
2023/03/03 12:09:33;;;;;;;53.00;24.30;;;;;;;0.25;99.27;100893.20;103992;1280;99277;-78
2023/03/03 12:12:35;;;;;;;55.00;24.10;;;;;;;0.28;99.33;100895.41;103964;1276;104618;-77
2023/03/03 12:15:31;;;;;;;56.60;27.30;;;;;;;0.28;99.20;100896.34;103951;1277;99380;-78
2023/03/03 12:18:38;;;;;;;57.40;27.40;;;;;;;0.28;99.18;100901.92;104169;1279;99394;-78
2023/03/03 12:21:36;;;;;;;54.60;27.60;;;;;;;0.29;99.32;100901.31;104216;1276;99316;-77
2023/03/03 12:24:41;;;;;;;46.10;22.30;;;;;;;0.32;99.35;100897.20;104352;1276;100435;-78
2023/03/03 12:27:38;;;;;;;43.90;22.00;;;;;;;0.30;99.13;100896.11;103974;1278;104229;-77
2023/03/03 12:30:31;;;;;;;43.70;22.10;;;;;;;0.27;99.07;100898.14;104059;1279;99341;-79
2023/03/03 12:33:38;;;;;;;45.30;22.20;;;;;;;0.25;99.19;100899.30;104183;1279;99705;-79
2023/03/03 12:36:47;;;;;;;41.80;20.20;;;;;;;0.26;99.27;100901.91;104208;1277;99259;-77
2023/03/03 12:39:53;;;;;;;43.00;19.70;;;;;;;0.22;99.21;100902.88;104364;1279;99307;-78
2023/03/03 12:43:06;;;;;;;54.30;22.30;;;;;;;0.20;99.25;100895.98;104373;1289;102817;-77
2023/03/03 12:46:16;;;;;;;62.10;28.00;;;;;;;0.21;99.25;100893.13;104077;1279;100634;-77